createdAt,value
2018-12-14T00:01:06.827Z,15.87
2018-12-14T00:03:34.907Z,15.37
2018-12-14T00:06:03.361Z,14.40
2018-12-14T00:08:31.584Z,15.43
2018-12-14T00:11:05.957Z,15.10
2018-12-14T00:13:34.072Z,13.77
2018-12-14T00:16:02.272Z,15.63
2018-12-14T00:18:30.624Z,14.90
2018-12-14T00:20:58.733Z,15.17
2018-12-14T00:23:26.855Z,15.70
2018-12-14T00:25:54.997Z,15.07
2018-12-14T00:28:23.083Z,15.97
2018-12-14T00:30:51.201Z,15.70
2018-12-14T00:33:20.350Z,16.33
2018-12-14T00:35:49.013Z,15.73
2018-12-14T00:38:17.158Z,17.17
2018-12-14T00:40:45.661Z,15.47
2018-12-14T00:43:13.851Z,15.83
2018-12-14T00:45:41.967Z,16.03
2018-12-14T00:48:10.113Z,15.83
2018-12-14T00:50:38.424Z,16.37
2018-12-14T00:53:06.560Z,15.90
2018-12-14T00:55:35.213Z,15.77
2018-12-14T00:58:03.323Z,16.40
2018-12-14T01:00:31.548Z,16.77
2018-12-14T01:03:00.024Z,16.97
2018-12-14T01:05:28.253Z,17.97
2018-12-14T01:07:56.746Z,16.50
2018-12-14T01:10:25.699Z,17.90
2018-12-14T01:12:53.793Z,18.30
2018-12-14T01:15:21.920Z,17.73
2018-12-14T01:17:50.342Z,18.47
2018-12-14T01:20:18.841Z,17.87
2018-12-14T01:22:47.834Z,17.67
2018-12-14T01:25:17.383Z,16.93
2018-12-14T01:27:45.807Z,17.43
2018-12-14T01:30:13.937Z,17.97
2018-12-14T01:32:42.144Z,17.97
2018-12-14T01:35:10.232Z,18.23
2018-12-14T01:37:38.352Z,17.20
2018-12-14T01:40:07.352Z,19.37
2018-12-14T01:42:35.521Z,18.43
2018-12-14T01:45:03.989Z,18.97
2018-12-14T01:47:32.424Z,18.83
2018-12-14T01:50:00.625Z,17.43
2018-12-14T01:52:28.911Z,19.13
2018-12-14T01:54:57.170Z,18.90
2018-12-14T01:57:25.738Z,18.47
2018-12-14T01:59:53.840Z,18.77
2018-12-14T02:02:22.290Z,18.97
2018-12-14T02:04:50.746Z,19.57
2018-12-14T02:07:18.927Z,19.20
2018-12-14T02:09:47.287Z,19.97
2018-12-14T02:12:15.388Z,20.03
2018-12-14T02:14:43.521Z,19.00
2018-12-14T02:17:12.014Z,19.23
2018-12-14T02:19:40.301Z,19.70
2018-12-14T02:22:08.426Z,18.03
2018-12-14T02:24:36.944Z,19.70
2018-12-14T02:27:05.289Z,19.93
2018-12-14T02:29:41.289Z,19.40
2018-12-14T02:32:09.442Z,19.50
2018-12-14T02:34:38.155Z,19.80
2018-12-14T02:37:06.733Z,20.17
2018-12-14T02:39:34.837Z,19.67
2018-12-14T02:42:02.970Z,19.67
2018-12-14T02:44:31.240Z,20.43
2018-12-14T02:46:59.321Z,20.40
2018-12-14T02:49:27.546Z,20.87
2018-12-14T02:51:56.072Z,20.60
2018-12-14T02:54:24.209Z,20.30
2018-12-14T02:56:52.330Z,22.00
2018-12-14T02:59:21.215Z,20.17
2018-12-14T03:01:49.365Z,19.80
2018-12-14T03:04:17.497Z,21.43
2018-12-14T03:06:45.628Z,21.77
2018-12-14T03:09:13.721Z,21.00
2018-12-14T03:11:41.923Z,21.13
2018-12-14T03:14:10.456Z,21.60
2018-12-14T03:16:38.662Z,21.63
2018-12-14T03:19:06.871Z,21.70
2018-12-14T03:21:35.392Z,22.20
2018-12-14T03:24:03.539Z,21.60
2018-12-14T03:26:31.627Z,22.30
2018-12-14T03:29:00.279Z,21.60
2018-12-14T03:31:28.418Z,21.30
2018-12-14T03:33:56.645Z,21.37
2018-12-14T03:36:24.947Z,22.87
2018-12-14T03:38:53.964Z,22.10
2018-12-14T03:41:22.153Z,21.57
2018-12-14T03:43:50.525Z,21.37
2018-12-14T03:46:18.621Z,21.60
2018-12-14T03:48:46.713Z,22.40
2018-12-14T03:51:15.188Z,22.03
2018-12-14T03:53:43.329Z,22.33
2018-12-14T03:56:11.461Z,22.13
2018-12-14T03:58:39.920Z,23.03
2018-12-14T04:01:08.049Z,22.53
2018-12-14T04:03:36.111Z,22.50
2018-12-14T04:06:04.263Z,22.27
2018-12-14T04:08:32.349Z,22.03
2018-12-14T04:11:00.530Z,21.77
2018-12-14T04:13:29.100Z,22.17
2018-12-14T04:15:57.158Z,21.80
2018-12-14T04:18:25.309Z,23.63
2018-12-14T04:20:53.803Z,23.07
2018-12-14T04:23:21.888Z,23.97
2018-12-14T04:25:49.934Z,22.83
2018-12-14T04:28:18.024Z,22.47
2018-12-14T04:30:46.057Z,23.10
2018-12-14T04:33:14.891Z,23.77
2018-12-14T04:35:43.417Z,23.43
2018-12-14T04:38:11.691Z,22.43
2018-12-14T04:40:39.812Z,21.70
2018-12-14T04:43:08.914Z,22.70
2018-12-14T04:45:37.041Z,21.87
2018-12-14T04:48:05.157Z,22.93
2018-12-14T04:50:33.548Z,23.67
2018-12-14T04:53:01.710Z,22.57
2018-12-14T04:55:29.782Z,21.53
2018-12-14T04:57:58.064Z,21.77
2018-12-14T05:00:26.357Z,21.90
2018-12-14T05:02:54.429Z,21.23
2018-12-14T05:05:22.799Z,21.47
2018-12-14T05:07:50.861Z,21.83
2018-12-14T05:10:18.927Z,21.50
2018-12-14T05:12:47.055Z,21.67
2018-12-14T05:15:15.261Z,22.17
2018-12-14T05:17:43.464Z,21.87
2018-12-14T05:20:11.810Z,22.27
2018-12-14T05:22:39.826Z,23.07
2018-12-14T05:25:08.003Z,23.73
2018-12-14T05:27:36.221Z,21.27
2018-12-14T05:30:05.353Z,22.07
2018-12-14T05:32:33.398Z,21.57
2018-12-14T05:35:01.472Z,21.00
2018-12-14T05:37:30.302Z,20.50
2018-12-14T05:39:58.417Z,20.03
2018-12-14T05:42:26.542Z,20.83
2018-12-14T05:44:54.616Z,20.60
2018-12-14T05:47:23.124Z,19.90
2018-12-14T05:50:01.110Z,21.20
2018-12-14T05:52:29.702Z,20.90
2018-12-14T05:54:57.817Z,20.87
2018-12-14T05:57:25.945Z,20.37
2018-12-14T05:59:54.094Z,20.50
2018-12-14T06:02:22.296Z,22.50
2018-12-14T06:04:50.408Z,20.10
2018-12-14T06:07:18.520Z,21.33
2018-12-14T06:09:46.575Z,21.03
2018-12-14T06:12:14.746Z,20.27
2018-12-14T06:14:42.851Z,19.77
2018-12-14T06:17:10.954Z,20.23
2018-12-14T06:19:39.080Z,21.03
2018-12-14T06:22:07.150Z,21.77
2018-12-14T06:24:35.402Z,20.73
2018-12-14T06:27:03.817Z,21.17
2018-12-14T06:29:32.503Z,21.80
2018-12-14T06:32:00.578Z,19.73
2018-12-14T06:34:29.678Z,20.60
2018-12-14T06:37:10.501Z,21.50
2018-12-14T06:42:35.473Z,21.60
2018-12-14T06:51:00.364Z,19.97
2018-12-14T06:59:21.431Z,22.33
2018-12-14T07:01:49.562Z,22.20
2018-12-14T07:04:17.645Z,23.23
2018-12-14T07:06:46.134Z,22.30
2018-12-14T07:09:18.397Z,22.57
2018-12-14T07:11:46.604Z,23.17
2018-12-14T07:14:14.770Z,23.97
2018-12-14T07:16:43.304Z,22.30
2018-12-14T07:19:11.458Z,32.15
2018-12-14T09:22:13.448Z,20.27
2018-12-14T10:11:55.107Z,21.03
2018-12-14T10:14:30.366Z,20.43
2018-12-14T10:17:08.626Z,21.37
2018-12-14T10:22:42.798Z,19.77
2018-12-14T10:25:19.429Z,20.40
2018-12-14T10:28:01.115Z,20.10
2018-12-14T11:58:26.226Z,18.23
2018-12-14T12:01:03.319Z,18.80
2018-12-14T12:03:44.237Z,17.17
2018-12-14T12:06:18.458Z,17.57
2018-12-14T12:09:02.570Z,17.70
2018-12-14T12:11:30.898Z,18.20
2018-12-14T12:14:10.914Z,17.87
2018-12-14T12:16:49.206Z,17.70
2018-12-14T12:22:17.940Z,17.57
2018-12-14T12:30:47.385Z,18.00
2018-12-14T12:33:18.801Z,17.67
2018-12-14T12:36:00.838Z,17.77
2018-12-14T12:41:31.015Z,17.40
2018-12-14T12:50:03.403Z,16.97
2018-12-14T12:52:42.612Z,16.83
2018-12-14T12:55:16.616Z,18.60
2018-12-14T12:57:50.760Z,17.43
2018-12-14T13:08:59.277Z,17.53
2018-12-14T13:11:28.333Z,16.90
2018-12-14T13:16:54.820Z,17.00
2018-12-14T13:19:39.144Z,17.80
2018-12-14T13:22:08.047Z,17.33
2018-12-14T13:24:36.386Z,17.00
2018-12-14T13:27:20.230Z,17.43
2018-12-14T13:29:46.879Z,17.33
2018-12-14T13:32:27.331Z,18.23
2018-12-14T13:34:55.982Z,16.63
2018-12-14T13:37:38.318Z,16.33
2018-12-14T13:43:13.474Z,16.70
2018-12-14T13:45:53.084Z,16.67
2018-12-14T13:48:31.481Z,16.17
2018-12-14T13:51:11.999Z,16.27
2018-12-14T13:53:44.265Z,15.73
2018-12-14T13:56:24.590Z,15.30
2018-12-14T13:59:02.355Z,15.77
2018-12-14T14:01:31.689Z,15.00
2018-12-14T14:04:08.354Z,14.83
2018-12-14T14:06:36.615Z,15.77
2018-12-14T14:09:08.681Z,14.70
2018-12-14T14:11:45.173Z,14.93
2018-12-14T14:14:17.234Z,15.50
2018-12-14T14:16:46.627Z,15.17
2018-12-14T14:19:24.034Z,14.73
2018-12-14T14:24:38.257Z,14.97
2018-12-14T14:27:20.421Z,14.60
2018-12-14T14:32:45.504Z,13.93
2018-12-14T14:35:13.693Z,14.10
2018-12-14T14:37:41.893Z,15.20
2018-12-14T14:46:17.187Z,13.03
2018-12-14T14:48:45.530Z,14.37
2018-12-14T14:51:14.005Z,13.87
2018-12-14T14:53:42.264Z,13.77
2018-12-14T14:59:19.678Z,14.40
2018-12-14T15:01:54.819Z,13.87
2018-12-14T15:04:31.982Z,13.90
2018-12-14T15:07:10.024Z,14.70
2018-12-14T15:09:47.747Z,14.20
2018-12-14T15:12:26.299Z,14.80
2018-12-14T15:15:06.798Z,15.33
2018-12-14T15:23:32.728Z,13.30
2018-12-14T15:26:10.614Z,15.67
2018-12-14T15:31:44.993Z,14.60
2018-12-14T15:57:41.533Z,15.23
2018-12-14T16:00:16.401Z,14.40
2018-12-14T16:02:53.590Z,14.57
2018-12-14T16:05:21.875Z,14.23
2018-12-14T16:07:57.951Z,14.87
2018-12-14T16:13:23.546Z,15.50
2018-12-14T16:15:51.796Z,15.27
2018-12-14T16:18:22.262Z,13.63
2018-12-14T16:20:50.436Z,15.00
2018-12-14T16:23:19.414Z,16.00
2018-12-14T16:25:47.520Z,15.80
2018-12-14T16:28:16.044Z,15.13
2018-12-14T16:30:44.222Z,15.20
2018-12-14T16:33:12.474Z,15.00
2018-12-14T16:38:38.102Z,15.40
2018-12-14T16:41:06.421Z,16.03
2018-12-14T16:43:34.606Z,14.67
2018-12-14T16:46:03.090Z,15.37
2018-12-14T16:48:31.730Z,15.87
2018-12-14T16:51:14.540Z,14.93
2018-12-14T16:56:54.397Z,16.93
2018-12-14T17:02:35.867Z,15.90
2018-12-14T17:05:09.804Z,15.27
2018-12-14T17:10:44.343Z,16.30
2018-12-14T17:13:25.583Z,15.67
2018-12-14T17:36:33.928Z,15.13
2018-12-14T17:42:05.641Z,15.93
2018-12-14T17:44:44.101Z,15.83
2018-12-14T17:50:12.349Z,15.43
2018-12-14T17:52:47.759Z,16.23
2018-12-14T17:55:28.674Z,16.43
2018-12-14T17:58:07.599Z,15.33
2018-12-14T18:00:46.082Z,16.47
2018-12-14T18:06:22.701Z,15.73
2018-12-14T18:08:59.172Z,16.77
2018-12-14T18:11:44.652Z,16.63
2018-12-14T18:17:10.149Z,14.93
2018-12-14T18:19:44.458Z,16.80
2018-12-14T18:22:12.674Z,15.60
2018-12-14T18:24:40.791Z,15.57
2018-12-14T18:27:09.000Z,15.87
2018-12-14T18:29:37.187Z,16.00
2018-12-14T18:32:05.305Z,17.13
2018-12-14T18:34:33.451Z,16.60
2018-12-14T18:37:01.740Z,17.03
2018-12-14T18:39:29.927Z,18.57
2018-12-14T18:41:58.046Z,17.33
2018-12-14T18:44:26.203Z,17.10
2018-12-14T18:46:54.419Z,17.10
2018-12-14T18:49:22.687Z,18.67
2018-12-14T18:51:51.052Z,18.97
2018-12-14T18:54:19.112Z,18.80
2018-12-14T18:56:56.818Z,20.03
2018-12-14T18:59:25.135Z,19.87
2018-12-14T19:01:53.325Z,19.13
2018-12-14T19:04:21.387Z,19.20
2018-12-14T19:06:49.499Z,21.07
2018-12-14T19:09:17.671Z,21.57
2018-12-14T19:11:45.913Z,22.33
2018-12-14T19:14:14.034Z,21.67
2018-12-14T19:16:42.151Z,22.37
2018-12-14T19:19:10.246Z,22.87
2018-12-14T19:21:38.348Z,20.23
2018-12-14T19:24:06.465Z,21.17
2018-12-14T19:26:34.701Z,20.87
2018-12-14T19:29:02.779Z,20.67
2018-12-14T19:31:30.951Z,21.43
2018-12-14T19:33:59.087Z,21.40
2018-12-14T19:36:27.330Z,21.30
2018-12-14T19:38:55.642Z,21.37
2018-12-14T19:41:23.775Z,21.37
2018-12-14T19:43:51.878Z,21.20
2018-12-14T19:46:20.003Z,20.27
2018-12-14T19:48:48.435Z,19.63
2018-12-14T19:51:16.565Z,20.27
2018-12-14T19:53:44.670Z,21.97
2018-12-14T19:56:12.798Z,20.37
2018-12-14T19:58:40.870Z,21.07
2018-12-14T20:01:08.947Z,21.03
2018-12-14T20:03:37.121Z,19.93
2018-12-14T20:06:05.250Z,20.83
2018-12-14T20:08:33.350Z,20.73
2018-12-14T20:11:01.606Z,20.67
2018-12-14T20:13:29.717Z,21.47
2018-12-14T20:15:57.952Z,20.67
2018-12-14T20:18:26.195Z,22.10
2018-12-14T20:20:54.358Z,22.37
2018-12-14T20:23:22.596Z,21.03
2018-12-14T20:25:51.021Z,21.50
2018-12-14T20:28:19.184Z,20.13
2018-12-14T20:30:47.334Z,21.87
2018-12-14T20:33:15.789Z,20.90
2018-12-14T20:35:43.882Z,19.60
2018-12-14T20:38:12.168Z,19.67
2018-12-14T20:40:40.380Z,19.13
2018-12-14T20:43:08.470Z,18.13
2018-12-14T20:45:36.844Z,19.17
2018-12-14T20:48:05.257Z,18.77
2018-12-14T20:50:33.319Z,18.50
2018-12-14T20:53:01.395Z,19.00
2018-12-14T20:55:29.510Z,19.97
2018-12-14T20:57:57.604Z,19.63
2018-12-14T21:00:25.909Z,19.83
2018-12-14T21:02:54.066Z,18.97
2018-12-14T21:05:22.242Z,18.93
2018-12-14T21:07:50.547Z,19.70
2018-12-14T21:10:19.249Z,19.33
2018-12-14T21:12:47.344Z,19.37
2018-12-14T21:15:15.582Z,18.50
2018-12-14T21:17:44.192Z,18.67
2018-12-14T21:20:12.757Z,19.60
2018-12-14T21:22:41.356Z,18.43
2018-12-14T21:25:11.922Z,17.77
2018-12-14T21:27:40.062Z,18.37
2018-12-14T21:30:10.033Z,17.17
2018-12-14T21:32:38.230Z,17.50
2018-12-14T21:35:06.446Z,16.80
2018-12-14T21:37:46.826Z,15.53
2018-12-14T21:43:08.978Z,15.63
2018-12-14T21:45:47.358Z,15.40
2018-12-14T21:48:23.602Z,16.07
2018-12-14T21:51:04.295Z,17.53
2018-12-14T21:53:42.665Z,17.20
2018-12-14T21:59:23.486Z,15.80
2018-12-14T22:02:03.708Z,15.73
2018-12-14T22:04:43.868Z,16.10
2018-12-14T22:07:20.127Z,15.50
2018-12-14T22:18:22.017Z,17.07
2018-12-14T22:20:51.872Z,15.93
2018-12-14T22:23:20.265Z,16.67
2018-12-14T22:25:48.497Z,16.60
2018-12-14T22:28:16.817Z,17.40
2018-12-14T22:30:52.217Z,17.07
2018-12-14T22:33:20.636Z,16.77
2018-12-14T22:35:56.938Z,17.83
2018-12-14T22:41:21.924Z,16.50
2018-12-14T22:46:50.453Z,16.90
2018-12-14T22:52:30.498Z,18.37
2018-12-14T22:58:06.643Z,17.67
2018-12-14T23:00:37.250Z,17.67
2018-12-14T23:06:01.373Z,16.40
2018-12-14T23:08:39.726Z,17.23
2018-12-14T23:19:50.989Z,17.67
2018-12-14T23:25:25.563Z,17.60
2018-12-14T23:31:01.145Z,17.77
2018-12-14T23:33:35.714Z,18.50
2018-12-14T23:44:48.800Z,15.57
2018-12-14T23:50:22.604Z,16.43
2018-12-14T23:52:50.970Z,16.87
2018-12-14T23:55:32.268Z,16.83
